createdAt,value
2023-09-05T00:02:08.393Z,66.39
2023-09-05T00:04:36.814Z,66.43
2023-09-05T00:07:04.619Z,66.75
2023-09-05T00:09:32.382Z,66.20
2023-09-05T00:12:00.193Z,66.34
2023-09-05T00:14:30.015Z,66.13
2023-09-05T00:16:57.763Z,66.14
2023-09-05T00:19:25.540Z,65.98
2023-09-05T00:21:53.284Z,66.41
2023-09-05T00:24:32.666Z,66.27
2023-09-05T00:27:01.771Z,66.37
2023-09-05T00:29:31.722Z,65.96
2023-09-05T00:32:01.012Z,65.91
2023-09-05T00:34:29.595Z,65.96
2023-09-05T00:36:59.348Z,65.99
2023-09-05T00:39:27.508Z,66.72
2023-09-05T00:41:56.152Z,66.54
2023-09-05T00:44:24.006Z,66.82
2023-09-05T00:46:56.092Z,66.69
2023-09-05T00:49:28.945Z,67.14
2023-09-05T00:51:58.808Z,67.05
2023-09-05T00:54:26.792Z,67.29
2023-09-05T00:56:55.262Z,67.36
2023-09-05T00:59:23.316Z,67.26
2023-09-05T01:01:51.159Z,67.57
2023-09-05T01:04:20.472Z,67.58
2023-09-05T01:06:55.595Z,68.06
2023-09-05T01:09:30.125Z,68.01
2023-09-05T01:11:58.707Z,67.74
2023-09-05T01:14:26.496Z,67.99
2023-09-05T01:17:02.202Z,68.02
2023-09-05T01:19:31.803Z,68.25
2023-09-05T01:22:07.341Z,68.11
2023-09-05T01:24:36.917Z,68.51
2023-09-05T01:27:05.816Z,68.25
2023-09-05T01:29:37.902Z,68.25
2023-09-05T01:32:06.684Z,68.82
2023-09-05T01:34:34.424Z,68.68
2023-09-05T01:37:02.280Z,68.76
2023-09-05T01:39:30.025Z,68.84
2023-09-05T01:42:00.124Z,68.99
2023-09-05T01:44:28.208Z,69.01
2023-09-05T01:46:56.001Z,69.41
2023-09-05T01:49:23.841Z,70.07
2023-09-05T01:51:51.595Z,69.77
2023-09-05T01:54:19.332Z,69.74
2023-09-05T01:56:47.042Z,69.69
2023-09-05T01:59:16.536Z,69.06
2023-09-05T02:01:44.323Z,69.08
2023-09-05T02:04:12.057Z,69.13
2023-09-05T02:06:40.625Z,69.15
2023-09-05T02:09:09.101Z,68.88
2023-09-05T02:11:36.890Z,68.97
2023-09-05T02:14:04.661Z,68.42
2023-09-05T02:16:34.462Z,68.66
2023-09-05T02:19:02.421Z,68.45
2023-09-05T02:21:30.160Z,68.87
2023-09-05T02:23:57.932Z,68.84
2023-09-05T02:26:25.644Z,69.61
2023-09-05T02:28:53.387Z,69.32
2023-09-05T02:31:21.922Z,69.50
2023-09-05T02:33:51.158Z,70.00
2023-09-05T02:36:19.815Z,70.00
2023-09-05T02:38:47.981Z,70.34
2023-09-05T02:41:16.156Z,70.44
2023-09-05T02:43:44.560Z,71.30
2023-09-05T02:46:12.312Z,71.40
2023-09-05T02:48:41.255Z,71.97
2023-09-05T02:51:11.588Z,72.97
2023-09-05T02:53:39.790Z,73.04
2023-09-05T02:56:07.621Z,73.73
2023-09-05T02:58:35.712Z,73.42
2023-09-05T03:01:04.369Z,73.92
2023-09-05T03:03:33.000Z,74.08
2023-09-05T03:06:10.855Z,74.60
2023-09-05T03:08:39.674Z,74.46
2023-09-05T03:11:07.536Z,75.06
2023-09-05T03:13:35.334Z,75.38
2023-09-05T03:16:03.158Z,74.59
2023-09-05T03:18:30.894Z,75.16
2023-09-05T03:20:58.692Z,75.16
2023-09-05T03:23:27.947Z,75.63
2023-09-05T03:25:55.934Z,75.34
2023-09-05T03:28:23.706Z,75.18
2023-09-05T03:30:51.522Z,75.84
2023-09-05T03:33:19.290Z,76.91
2023-09-05T03:35:47.094Z,76.60
2023-09-05T03:38:14.840Z,76.39
2023-09-05T03:40:43.964Z,77.15
2023-09-05T03:43:11.676Z,76.85
2023-09-05T03:45:39.417Z,76.80
2023-09-05T03:48:08.242Z,78.04
2023-09-05T03:50:36.026Z,77.19
2023-09-05T03:53:03.767Z,77.87
2023-09-05T03:55:35.666Z,77.81
2023-09-05T03:58:07.747Z,78.24
2023-09-05T04:00:35.597Z,78.06
2023-09-05T04:03:03.966Z,77.87
2023-09-05T04:05:32.121Z,77.70
2023-09-05T04:07:59.933Z,78.32
2023-09-05T04:10:27.700Z,78.19
2023-09-05T04:12:55.406Z,78.26
2023-09-05T04:15:24.712Z,78.77
2023-09-05T04:17:53.075Z,78.04
2023-09-05T04:20:21.294Z,78.33
2023-09-05T04:22:49.069Z,79.21
2023-09-05T04:25:16.993Z,78.88
2023-09-05T04:27:44.771Z,78.77
2023-09-05T04:30:14.146Z,78.66
2023-09-05T04:32:44.336Z,78.34
2023-09-05T04:35:12.492Z,78.63
2023-09-05T04:37:40.175Z,78.62
2023-09-05T04:40:09.799Z,77.95
2023-09-05T04:42:39.598Z,78.05
2023-09-05T04:45:08.380Z,78.08
2023-09-05T04:47:36.331Z,77.51
2023-09-05T04:50:06.219Z,77.90
2023-09-05T04:52:34.023Z,77.19
2023-09-05T04:55:01.946Z,77.68
2023-09-05T04:57:30.470Z,77.56
2023-09-05T04:59:59.229Z,77.15
2023-09-05T05:02:27.894Z,77.47
2023-09-05T05:04:56.421Z,77.98
2023-09-05T05:07:25.545Z,77.64
2023-09-05T05:09:53.621Z,77.46
2023-09-05T05:12:21.451Z,77.40
2023-09-05T05:14:49.189Z,77.54
2023-09-05T05:17:16.944Z,77.06
2023-09-05T05:19:44.928Z,76.97
2023-09-05T05:22:12.938Z,77.05
2023-09-05T05:24:41.995Z,76.66
2023-09-05T05:27:09.787Z,76.69
2023-09-05T05:29:37.526Z,76.14
2023-09-05T05:32:13.317Z,76.41
2023-09-05T05:34:41.021Z,76.02
2023-09-05T05:37:08.779Z,75.88
2023-09-05T05:39:37.360Z,75.28
2023-09-05T05:42:06.943Z,75.01
2023-09-05T05:44:34.945Z,74.71
2023-09-05T05:47:02.730Z,74.06
2023-09-05T05:49:30.915Z,73.77
2023-09-05T05:51:58.770Z,73.40
2023-09-05T05:54:26.632Z,73.48
2023-09-05T05:56:56.400Z,73.45
2023-09-05T05:59:28.654Z,72.98
2023-09-05T06:01:56.973Z,72.59
2023-09-05T06:04:25.813Z,72.41
2023-09-05T06:06:54.258Z,72.31
2023-09-05T06:09:22.389Z,71.35
2023-09-05T06:11:50.134Z,71.50
2023-09-05T06:14:17.890Z,71.09
2023-09-05T06:16:47.890Z,70.64
2023-09-05T06:19:16.031Z,70.56
2023-09-05T06:21:48.143Z,70.91
2023-09-05T06:24:16.164Z,69.88
2023-09-05T06:26:46.336Z,70.70
2023-09-05T06:29:20.541Z,69.68
2023-09-05T06:31:50.335Z,68.97
2023-09-05T06:34:22.820Z,69.45
2023-09-05T06:36:50.598Z,68.62
2023-09-05T06:39:18.356Z,68.49
2023-09-05T06:41:49.169Z,68.74
2023-09-05T06:44:17.295Z,68.20
2023-09-05T06:46:45.165Z,67.09
2023-09-05T06:49:14.268Z,67.25
2023-09-05T06:51:42.042Z,67.37
2023-09-05T06:54:09.795Z,66.95
2023-09-05T06:56:37.582Z,67.02
2023-09-05T06:59:05.940Z,66.77
2023-09-05T07:01:34.891Z,66.58
2023-09-05T07:04:03.179Z,66.54
2023-09-05T07:06:32.334Z,66.25
2023-09-05T07:09:01.832Z,66.08
2023-09-05T07:11:29.576Z,65.77
2023-09-05T07:13:57.321Z,65.45
2023-09-05T07:16:25.091Z,65.47
2023-09-05T07:18:53.024Z,65.64
2023-09-05T07:21:20.741Z,65.66
2023-09-05T07:23:49.919Z,65.30
2023-09-05T07:26:18.724Z,65.92
2023-09-05T07:28:48.328Z,65.33
2023-09-05T07:31:18.276Z,65.19
2023-09-05T07:33:46.208Z,65.25
2023-09-05T07:36:16.765Z,64.85
2023-09-05T07:38:44.541Z,64.84
2023-09-05T07:41:13.668Z,63.96
2023-09-05T07:43:41.389Z,63.56
2023-09-05T07:46:09.225Z,63.35
2023-09-05T07:48:37.009Z,62.84
2023-09-05T07:51:07.026Z,63.32
2023-09-05T07:53:36.177Z,62.97
2023-09-05T07:56:04.299Z,62.78
2023-09-05T07:58:33.793Z,62.20
2023-09-05T08:01:04.666Z,61.40
2023-09-05T08:03:32.428Z,58.82
2023-09-05T08:06:00.236Z,58.34
2023-09-05T08:08:28.177Z,58.26
2023-09-05T08:10:56.088Z,56.78
2023-09-05T08:13:26.292Z,56.37
2023-09-05T08:15:55.563Z,55.40
2023-09-05T08:18:23.386Z,55.52
2023-09-05T08:20:51.168Z,54.51
2023-09-05T08:23:18.867Z,54.84
2023-09-05T08:25:52.658Z,54.42
2023-09-05T08:28:20.612Z,54.42
2023-09-05T08:30:48.532Z,53.57
2023-09-05T08:33:18.255Z,52.01
2023-09-05T08:35:46.366Z,52.96
2023-09-05T08:38:14.958Z,52.03
2023-09-05T08:40:46.420Z,50.23
2023-09-05T08:43:14.261Z,51.82
2023-09-05T08:45:45.955Z,51.08
2023-09-05T08:48:14.020Z,52.41
2023-09-05T08:50:43.347Z,51.03
2023-09-05T08:53:16.570Z,50.75
2023-09-05T08:55:46.090Z,50.35
2023-09-05T08:58:15.667Z,51.67
2023-09-05T09:00:45.637Z,50.64
2023-09-05T09:03:15.396Z,51.28
2023-09-05T09:05:47.683Z,49.96
2023-09-05T09:08:16.966Z,50.50
2023-09-05T09:10:44.798Z,50.06
2023-09-05T09:13:16.590Z,47.90
2023-09-05T09:15:47.205Z,50.07
2023-09-05T09:18:15.790Z,49.85
2023-09-05T09:20:45.907Z,48.81
2023-09-05T09:23:14.304Z,48.67
2023-09-05T09:25:48.711Z,46.53
2023-09-05T09:28:24.646Z,48.30
2023-09-05T09:30:59.479Z,46.56
2023-09-05T09:33:27.630Z,48.35
2023-09-05T09:36:07.599Z,42.41
2023-09-05T09:38:35.769Z,46.99
2023-09-05T09:41:05.300Z,47.32
2023-09-05T09:43:33.854Z,47.27
2023-09-05T09:46:03.046Z,47.21
2023-09-05T09:48:31.759Z,46.94
2023-09-05T09:51:01.429Z,46.34
2023-09-05T09:53:35.858Z,45.34
2023-09-05T09:56:06.007Z,46.00
2023-09-05T09:58:34.083Z,45.52
2023-09-05T10:01:02.463Z,45.08
2023-09-05T10:03:30.582Z,44.40
2023-09-05T10:05:58.951Z,44.52
2023-09-05T10:08:29.996Z,44.84
2023-09-05T10:10:59.864Z,42.83
2023-09-05T10:13:34.108Z,43.51
2023-09-05T10:16:03.366Z,43.87
2023-09-05T10:18:39.248Z,42.93
2023-09-05T10:21:07.613Z,43.82
2023-09-05T10:23:36.281Z,43.97
2023-09-05T10:26:05.914Z,43.41
2023-09-05T10:28:36.504Z,41.92
2023-09-05T10:31:08.383Z,42.11
2023-09-05T10:33:38.202Z,41.54
2023-09-05T10:36:07.536Z,42.40
2023-09-05T10:38:37.568Z,42.48
2023-09-05T10:41:07.704Z,41.79
2023-09-05T10:43:36.164Z,42.99
2023-09-05T10:46:04.609Z,42.09
2023-09-05T10:48:38.151Z,39.87
2023-09-05T10:51:07.170Z,41.04
2023-09-05T10:53:35.808Z,41.42
2023-09-05T10:56:03.927Z,41.71
2023-09-05T10:58:49.311Z,40.45
2023-09-05T11:01:54.180Z,39.25
2023-09-05T11:04:27.757Z,41.43
2023-09-05T11:06:57.355Z,40.82
2023-09-05T11:09:25.963Z,40.81
2023-09-05T11:11:54.947Z,40.46
2023-09-05T11:14:34.652Z,40.41
2023-09-05T11:17:03.528Z,40.50
2023-09-05T11:19:33.046Z,40.33
2023-09-05T11:22:09.819Z,37.36
2023-09-05T11:24:38.081Z,39.93
2023-09-05T11:27:07.942Z,39.56
2023-09-05T11:29:40.337Z,39.26
2023-09-05T11:32:08.535Z,39.35
2023-09-05T11:34:36.585Z,39.44
2023-09-05T11:37:04.390Z,39.49
2023-09-05T11:39:32.110Z,39.54
2023-09-05T11:42:01.631Z,39.64
2023-09-05T11:44:39.753Z,37.19
2023-09-05T11:47:08.059Z,38.97
2023-09-05T11:49:36.826Z,39.26
2023-09-05T11:52:05.646Z,38.30
2023-09-05T11:54:33.644Z,38.28
2023-09-05T11:57:03.678Z,38.78
2023-09-05T11:59:31.703Z,39.19
2023-09-05T12:02:07.902Z,34.26
2023-09-05T12:04:36.205Z,38.36
2023-09-05T12:07:06.524Z,38.74
2023-09-05T12:09:34.655Z,38.38
2023-09-05T12:12:13.261Z,35.04
2023-09-05T12:14:50.555Z,37.78
2023-09-05T12:17:20.662Z,38.06
2023-09-05T12:19:48.972Z,38.67
2023-09-05T12:22:28.511Z,37.51
2023-09-05T12:25:11.272Z,36.31
2023-09-05T12:27:40.538Z,37.62
2023-09-05T12:30:10.076Z,38.09
2023-09-05T12:32:39.705Z,38.17
2023-09-05T12:35:08.073Z,38.28
2023-09-05T12:37:35.811Z,38.15
2023-09-05T12:40:06.513Z,37.91
2023-09-05T12:42:36.827Z,38.15
2023-09-05T12:45:05.824Z,37.93
2023-09-05T12:47:33.636Z,37.68
2023-09-05T12:50:10.633Z,37.18
2023-09-05T12:52:39.624Z,37.75
2023-09-05T12:55:08.584Z,36.93
2023-09-05T12:57:36.363Z,36.50
2023-09-05T13:00:04.322Z,36.50
2023-09-05T13:02:32.111Z,37.28
2023-09-05T13:05:00.242Z,37.04
2023-09-05T13:07:29.470Z,36.25
2023-09-05T13:09:57.221Z,37.43
2023-09-05T13:12:27.334Z,37.46
2023-09-05T13:14:55.336Z,36.77
2023-09-05T13:17:23.387Z,36.75
2023-09-05T13:19:51.172Z,37.26
2023-09-05T13:22:19.160Z,37.75
2023-09-05T13:24:48.527Z,37.07
2023-09-05T13:27:16.315Z,37.60
2023-09-05T13:29:44.164Z,36.80
2023-09-05T13:32:11.993Z,37.14
2023-09-05T13:34:40.001Z,36.49
2023-09-05T13:37:09.056Z,36.14
2023-09-05T13:39:36.980Z,36.49
2023-09-05T13:42:06.616Z,36.40
2023-09-05T13:44:34.867Z,36.64
2023-09-05T13:47:02.614Z,36.39
2023-09-05T13:49:30.487Z,36.58
2023-09-05T13:51:58.254Z,36.71
2023-09-05T13:54:26.555Z,37.47
2023-09-05T13:56:55.662Z,37.77
2023-09-05T13:59:25.009Z,38.19
2023-09-05T14:01:52.937Z,38.27
2023-09-05T14:04:20.931Z,37.98
2023-09-05T14:06:48.721Z,38.44
2023-09-05T14:09:17.347Z,39.05
2023-09-05T14:11:46.802Z,38.48
2023-09-05T14:14:17.091Z,38.85
2023-09-05T14:16:46.426Z,39.02
2023-09-05T14:19:14.299Z,38.99
2023-09-05T14:21:42.114Z,39.58
2023-09-05T14:24:11.193Z,39.41
2023-09-05T14:26:39.236Z,39.91
2023-09-05T14:29:08.793Z,39.96
2023-09-05T14:31:36.620Z,39.70
2023-09-05T14:34:05.848Z,39.72
2023-09-05T14:36:33.713Z,39.74
2023-09-05T14:39:01.491Z,39.92
2023-09-05T14:41:32.893Z,39.73
2023-09-05T14:44:04.507Z,40.03
2023-09-05T14:46:34.388Z,40.06
2023-09-05T14:49:03.141Z,39.93
2023-09-05T14:51:32.923Z,39.69
2023-09-05T14:54:00.740Z,40.00
2023-09-05T14:56:28.512Z,39.45
2023-09-05T14:58:56.231Z,38.75
2023-09-05T15:01:24.112Z,38.41
2023-09-05T15:03:52.032Z,38.28
2023-09-05T15:06:19.938Z,38.59
2023-09-05T15:08:49.020Z,38.67
2023-09-05T15:11:17.158Z,38.12
2023-09-05T15:13:47.399Z,37.31
2023-09-05T15:16:15.313Z,37.69
2023-09-05T15:18:43.208Z,37.54
2023-09-05T15:21:11.676Z,37.81
2023-09-05T15:23:39.581Z,37.21
2023-09-05T15:26:08.706Z,37.56
2023-09-05T15:28:36.913Z,37.86
2023-09-05T15:31:06.077Z,38.40
2023-09-05T15:33:34.225Z,38.99
2023-09-05T15:36:02.421Z,38.83
2023-09-05T15:38:30.475Z,39.42
2023-09-05T15:40:58.393Z,39.45
2023-09-05T15:43:28.136Z,39.79
2023-09-05T15:46:00.505Z,39.30
2023-09-05T15:48:28.766Z,40.06
2023-09-05T15:50:56.922Z,39.72
2023-09-05T15:53:24.911Z,40.02
2023-09-05T15:55:54.952Z,40.01
2023-09-05T15:58:22.898Z,40.21
2023-09-05T16:00:52.717Z,40.40
2023-09-05T16:03:21.228Z,40.21
2023-09-05T16:05:49.963Z,40.60
2023-09-05T16:08:17.783Z,41.36
2023-09-05T16:10:46.083Z,41.43
2023-09-05T16:13:13.926Z,41.43
2023-09-05T16:15:41.905Z,41.83
2023-09-05T16:18:11.163Z,41.89
2023-09-05T16:20:54.114Z,42.04
2023-09-05T16:23:24.096Z,42.21
2023-09-05T16:25:52.389Z,42.29
2023-09-05T16:28:20.452Z,42.48
2023-09-05T16:30:48.378Z,42.72
2023-09-05T16:33:17.838Z,42.41
2023-09-05T16:35:46.185Z,42.91
2023-09-05T16:38:14.142Z,42.93
2023-09-05T16:40:41.879Z,42.65
2023-09-05T16:43:09.630Z,42.59
2023-09-05T16:45:37.442Z,42.23
2023-09-05T16:48:05.589Z,42.48
2023-09-05T16:50:34.860Z,42.77
2023-09-05T16:53:03.796Z,43.20
2023-09-05T16:55:32.399Z,43.37
2023-09-05T16:58:00.290Z,43.09
2023-09-05T17:00:28.784Z,43.53
2023-09-05T17:02:56.940Z,43.70
2023-09-05T17:05:24.929Z,43.88
2023-09-05T17:07:54.241Z,44.40
2023-09-05T17:10:21.981Z,44.76
2023-09-05T17:12:49.844Z,45.02
2023-09-05T17:15:17.808Z,45.45
2023-09-05T17:17:45.884Z,45.52
2023-09-05T17:20:13.847Z,45.17
2023-09-05T17:22:43.720Z,45.33
2023-09-05T17:25:15.867Z,45.25
2023-09-05T17:27:46.457Z,45.16
2023-09-05T17:30:14.774Z,45.52
2023-09-05T17:32:42.709Z,45.33
2023-09-05T17:35:11.204Z,46.15
2023-09-05T17:37:41.386Z,46.04
2023-09-05T17:40:10.312Z,46.38
2023-09-05T17:42:39.766Z,46.68
2023-09-05T17:45:09.260Z,46.80
2023-09-05T17:47:37.192Z,47.14
2023-09-05T17:50:05.594Z,47.16
2023-09-05T17:52:34.156Z,47.85
2023-09-05T17:55:02.030Z,48.45
2023-09-05T17:57:30.141Z,48.76
2023-09-05T17:59:59.451Z,49.42
2023-09-05T18:02:27.299Z,49.71
2023-09-05T18:04:55.215Z,50.10
2023-09-05T18:07:24.022Z,50.28
2023-09-05T18:09:54.202Z,50.54
2023-09-05T18:12:22.111Z,50.34
2023-09-05T18:14:50.003Z,50.81
2023-09-05T18:17:19.128Z,51.42
2023-09-05T18:19:47.475Z,51.86
2023-09-05T18:22:15.535Z,52.41
2023-09-05T18:24:43.376Z,52.79
2023-09-05T18:27:11.443Z,53.16
2023-09-05T18:29:39.381Z,53.79
2023-09-05T18:32:07.447Z,54.39
2023-09-05T18:34:41.564Z,54.97
2023-09-05T18:37:10.442Z,54.93
2023-09-05T18:39:38.815Z,55.11
2023-09-05T18:42:07.818Z,55.15
2023-09-05T18:44:35.850Z,55.37
2023-09-05T18:47:04.456Z,55.11
2023-09-05T18:49:33.163Z,54.78
2023-09-05T18:52:03.046Z,54.43
2023-09-05T18:54:30.926Z,54.15
2023-09-05T18:56:59.475Z,53.60
2023-09-05T18:59:27.756Z,53.63
2023-09-05T19:01:56.320Z,53.99
2023-09-05T19:04:26.758Z,53.96
2023-09-05T19:06:55.840Z,53.85
2023-09-05T19:09:26.785Z,53.37
2023-09-05T19:11:54.606Z,52.98
2023-09-05T19:14:22.443Z,53.06
2023-09-05T19:16:55.769Z,52.70
2023-09-05T19:19:25.129Z,52.70
2023-09-05T19:21:54.482Z,52.62
2023-09-05T19:24:22.556Z,52.66
2023-09-05T19:26:52.598Z,52.44
2023-09-05T19:29:20.537Z,52.47
2023-09-05T19:31:48.330Z,52.63
2023-09-05T19:34:16.150Z,52.77
2023-09-05T19:36:44.303Z,52.61
2023-09-05T19:39:12.331Z,52.83
2023-09-05T19:41:41.927Z,52.86
2023-09-05T19:44:11.124Z,52.98
2023-09-05T19:46:38.971Z,52.79
2023-09-05T19:49:09.518Z,52.71
2023-09-05T19:51:37.935Z,53.04
2023-09-05T19:54:05.993Z,52.93
2023-09-05T19:56:33.956Z,53.19
2023-09-05T19:59:01.738Z,53.40
2023-09-05T20:01:34.573Z,53.32
2023-09-05T20:04:02.698Z,53.58
2023-09-05T20:06:32.048Z,53.47
2023-09-05T20:09:00.320Z,53.94
2023-09-05T20:11:28.165Z,53.97
2023-09-05T20:13:55.969Z,54.45
2023-09-05T20:16:23.835Z,54.47
2023-09-05T20:18:53.878Z,54.84
2023-09-05T20:21:21.763Z,54.34
2023-09-05T20:23:49.738Z,54.52
2023-09-05T20:26:19.623Z,54.82
2023-09-05T20:28:47.563Z,54.51
2023-09-05T20:31:15.399Z,54.37
2023-09-05T20:33:43.263Z,54.35
2023-09-05T20:36:13.974Z,54.56
2023-09-05T20:38:41.833Z,53.99
2023-09-05T20:41:09.720Z,54.37
2023-09-05T20:43:38.151Z,54.32
2023-09-05T20:46:06.326Z,54.34
2023-09-05T20:48:34.516Z,54.40
2023-09-05T20:51:02.739Z,54.39
2023-09-05T20:53:32.188Z,54.86
2023-09-05T20:56:02.382Z,54.92
2023-09-05T20:58:33.087Z,54.72
2023-09-05T21:01:02.909Z,54.57
2023-09-05T21:03:31.300Z,54.67
2023-09-05T21:06:01.821Z,55.27
2023-09-05T21:08:31.056Z,55.19
2023-09-05T21:10:58.947Z,55.32
2023-09-05T21:13:26.844Z,55.38
2023-09-05T21:16:03.554Z,56.06
2023-09-05T21:18:31.724Z,55.58
2023-09-05T21:20:59.890Z,55.90
2023-09-05T21:23:28.089Z,55.62
2023-09-05T21:25:57.261Z,55.96
2023-09-05T21:28:25.109Z,55.77
2023-09-05T21:30:53.192Z,55.94
2023-09-05T21:33:21.173Z,56.18
2023-09-05T21:35:49.976Z,56.38
2023-09-05T21:38:17.771Z,56.56
2023-09-05T21:40:45.721Z,56.25
2023-09-05T21:43:15.010Z,56.78
2023-09-05T21:45:42.810Z,57.13
2023-09-05T21:48:10.675Z,57.13
2023-09-05T21:50:38.505Z,57.50
2023-09-05T21:53:06.584Z,57.78
2023-09-05T21:55:34.298Z,57.71
2023-09-05T21:58:02.142Z,58.05
2023-09-05T22:00:33.081Z,58.52
2023-09-05T22:03:02.849Z,58.54
2023-09-05T22:05:30.987Z,58.70
2023-09-05T22:07:59.524Z,58.84
2023-09-05T22:10:28.653Z,59.10
2023-09-05T22:12:56.466Z,59.43
2023-09-05T22:15:24.273Z,59.69
2023-09-05T22:17:55.064Z,60.50
2023-09-05T22:20:24.298Z,60.50
2023-09-05T22:22:52.260Z,61.34
2023-09-05T22:25:20.176Z,61.26
2023-09-05T22:27:48.111Z,61.77
2023-09-05T22:30:17.024Z,61.73
2023-09-05T22:32:45.450Z,62.12
2023-09-05T22:35:15.177Z,62.45
2023-09-05T22:37:42.953Z,62.51
2023-09-05T22:40:15.836Z,63.27
2023-09-05T22:42:43.730Z,63.11
2023-09-05T22:45:12.466Z,63.21
2023-09-05T22:47:42.010Z,63.53
2023-09-05T22:50:11.488Z,64.06
2023-09-05T22:52:41.007Z,64.27
2023-09-05T22:55:10.123Z,64.21
2023-09-05T22:57:37.951Z,64.59
2023-09-05T23:00:10.230Z,65.13
2023-09-05T23:02:38.621Z,64.77
2023-09-05T23:05:07.259Z,65.19
2023-09-05T23:07:35.247Z,65.34
2023-09-05T23:10:04.787Z,65.83
2023-09-05T23:12:32.599Z,65.59
2023-09-05T23:15:00.406Z,66.14
2023-09-05T23:17:30.809Z,66.30
2023-09-05T23:20:00.040Z,67.35
2023-09-05T23:22:28.642Z,67.33
2023-09-05T23:24:56.542Z,67.13
2023-09-05T23:27:25.846Z,67.19
2023-09-05T23:29:54.096Z,67.88
2023-09-05T23:32:22.668Z,67.53
2023-09-05T23:34:50.514Z,68.09
2023-09-05T23:37:18.303Z,68.11
2023-09-05T23:39:47.439Z,67.90
2023-09-05T23:42:16.407Z,67.92
2023-09-05T23:44:45.568Z,68.09
2023-09-05T23:47:13.474Z,67.80
2023-09-05T23:49:41.343Z,68.14
2023-09-05T23:52:09.169Z,68.12
2023-09-05T23:54:37.134Z,67.82
2023-09-05T23:57:05.428Z,67.96
2023-09-05T23:59:33.740Z,68.30
